»·PEaware :: HB-HRJ KLAX-KSNA

HB-HRJ :: KLAX-KSNA

FLIGHT INFORMATION

Flight Status: Arrived
Operator: Privately registered:
Switzerland
More flights under this callsign
Pilot: Jean Francois S. (616)
Aircraft: PILATUS PC-9 HUDURNIK
(PC9)
More flights by this aircraft type
Origin: KLAX Los Angeles Intl
United States
Destination: KSNA John Wayne-Orange Co
United States
More flights between these airports :: More routes between these airports
Route: +
File this flight plan on PilotEdge
Remarks:
Altitude:
(Current/Filed)
1,500ft
Speed:
(Current/Filed)
0kts
Departed: 28-Jul-14 11:29 AM
Arrived: 28-Jul-14 12:17 PM
Distance/Time
Traveled:
31nm/0:48
Distance/Time
To Go:
Arrived

Flight Plot

Page will automatically refresh every two minutes.


Map Options




Map Legend


Flown Route
Filed Route
Departure Airport
Arrival Airport
Navaid (VOR, NDB)
Fix

Horizontal Profiles

Position Reports

Time Latitude Longitude Heading Altitude Ground
Speed
28-Jul-14 10:02 33.672617 -117.866869 135 61ft 0kts
28-Jul-14 10:03 33.672617 -117.866869 135 61ft 0kts
28-Jul-14 10:04 33.672617 -117.866869 135 61ft 0kts
28-Jul-14 10:05 33.672617 -117.866869 135 61ft 0kts
28-Jul-14 10:06 33.672617 -117.866869 135 61ft 0kts
28-Jul-14 10:07 33.672617 -117.866869 135 61ft 0kts
28-Jul-14 10:08 33.672617 -117.866869 135 61ft 0kts
28-Jul-14 10:09 33.672617 -117.866869 135 61ft 0kts
28-Jul-14 10:10 33.672617 -117.866869 135 61ft 0kts
28-Jul-14 10:11 33.672617 -117.866869 135 61ft 0kts
28-Jul-14 10:12 33.672617 -117.866869 135 61ft 0kts
28-Jul-14 10:13 33.672617 -117.866869 135 61ft 0kts
28-Jul-14 10:14 33.672617 -117.866869 135 61ft 0kts
28-Jul-14 10:15 33.672617 -117.866869 135 61ft 0kts
28-Jul-14 10:16 33.672617 -117.866869 135 61ft 0kts
28-Jul-14 10:17 33.672617 -117.866869 135 61ft 0kts
28-Jul-14 10:18 33.672617 -117.866869 135 61ft 0kts
28-Jul-14 10:19 33.672617 -117.866869 135 61ft 0kts
28-Jul-14 10:20 33.672617 -117.866869 135 61ft 0kts
28-Jul-14 10:21 33.672617 -117.866869 135 61ft 0kts
28-Jul-14 10:22 33.672617 -117.866869 135 61ft 0kts
28-Jul-14 10:23 33.672617 -117.866869 135 61ft 0kts
28-Jul-14 10:24 33.672617 -117.866869 135 61ft 0kts
28-Jul-14 10:25 33.672617 -117.866869 135 61ft 0kts
28-Jul-14 10:26 33.672617 -117.866869 135 61ft 0kts
28-Jul-14 10:27 33.672617 -117.866869 135 61ft 0kts
28-Jul-14 10:28 33.672617 -117.866869 135 61ft 0kts
28-Jul-14 10:29 33.672617 -117.866869 135 61ft 0kts
28-Jul-14 10:30 33.672617 -117.866869 135 61ft 0kts
28-Jul-14 10:31 33.672617 -117.866869 135 61ft 0kts
28-Jul-14 10:32 33.672617 -117.866869 135 61ft 0kts
28-Jul-14 10:33 33.672617 -117.866869 135 61ft 0kts
28-Jul-14 10:34 33.672617 -117.866869 135 61ft 0kts
28-Jul-14 10:35 33.672617 -117.866869 135 61ft 0kts
28-Jul-14 10:36 33.672617 -117.866869 135 61ft 0kts
28-Jul-14 10:37 33.672617 -117.866869 135 61ft 0kts
28-Jul-14 10:38 33.672617 -117.866869 135 61ft 0kts
28-Jul-14 10:39 33.672617 -117.866869 135 61ft 0kts
28-Jul-14 10:40 33.672617 -117.866869 135 61ft 0kts
28-Jul-14 10:41 33.672617 -117.866869 135 61ft 0kts
28-Jul-14 10:42 33.677935 -117.863292 116 60ft 0kts
28-Jul-14 10:43 33.677933 -117.863185 33 60ft 4kts
28-Jul-14 10:44 33.677873 -117.863530 271 60ft 0kts
28-Jul-14 10:45 33.677873 -117.863530 271 60ft 0kts
28-Jul-14 10:46 33.677873 -117.863530 271 60ft 0kts
28-Jul-14 10:47 33.677927 -117.863279 116 60ft 0kts
28-Jul-14 10:48 33.677933 -117.863279 116 60ft 0kts
28-Jul-14 10:49 33.677933 -117.863279 116 60ft 0kts
28-Jul-14 10:50 33.677933 -117.863279 116 60ft 0kts
28-Jul-14 10:51 33.677933 -117.863279 116 60ft 0kts
28-Jul-14 10:52 33.677933 -117.863279 116 60ft 0kts
28-Jul-14 10:53 33.677933 -117.863279 116 60ft 0kts
28-Jul-14 10:54 33.677933 -117.863279 116 60ft 0kts
28-Jul-14 10:55 33.677933 -117.863279 116 60ft 0kts
28-Jul-14 10:56 33.677933 -117.863279 116 60ft 0kts
28-Jul-14 10:57 33.677933 -117.863279 116 60ft 0kts
28-Jul-14 10:58 33.677933 -117.863279 116 60ft 0kts
28-Jul-14 10:59 33.677933 -117.863279 116 60ft 0kts
28-Jul-14 11:00 33.677933 -117.863279 116 60ft 0kts
28-Jul-14 11:01 33.677933 -117.863279 116 60ft 0kts
28-Jul-14 11:02 33.677933 -117.863279 116 60ft 0kts
28-Jul-14 11:03 35.237901 -120.646676 178 216ft 0kts
28-Jul-14 11:04 35.237901 -120.646676 178 216ft 0kts
28-Jul-14 11:05 35.237901 -120.646676 178 216ft 0kts
28-Jul-14 11:06 35.237901 -120.646676 178 216ft 0kts
28-Jul-14 11:07 35.237901 -120.646676 178 216ft 0kts
28-Jul-14 11:08 35.237901 -120.646676 178 216ft 0kts
28-Jul-14 11:09 35.237901 -120.646676 178 216ft 0kts
28-Jul-14 11:10 35.237901 -120.646676 178 216ft 0kts
28-Jul-14 11:11 35.237901 -120.646676 178 216ft 0kts
28-Jul-14 11:12 35.237901 -120.646676 178 216ft 0kts
28-Jul-14 11:13 35.237901 -120.646676 178 216ft 0kts
28-Jul-14 11:14 35.237901 -120.646676 178 216ft 0kts
28-Jul-14 11:15 35.237901 -120.646676 178 216ft 0kts
28-Jul-14 11:16 35.237901 -120.646676 178 216ft 0kts
28-Jul-14 11:17 35.237855 -120.646674 177 216ft 0kts
28-Jul-14 11:18 35.237855 -120.646674 177 216ft 0kts
28-Jul-14 11:19 35.237855 -120.646674 177 216ft 0kts
28-Jul-14 11:20 35.237855 -120.646674 177 216ft 0kts
28-Jul-14 11:21 35.237855 -120.646674 177 216ft 0kts
28-Jul-14 11:22 35.237748 -120.646086 91 216ft 17kts
28-Jul-14 11:23 35.237803 -120.642329 87 216ft 17kts
28-Jul-14 11:24 35.236358 -120.637142 125 217ft 31kts
28-Jul-14 11:25 35.234091 -120.633740 214 217ft 0kts
28-Jul-14 11:26 35.234091 -120.633740 214 217ft 0kts
28-Jul-14 11:27 35.234047 -120.635019 303 216ft 14kts
28-Jul-14 11:28 35.237914 -120.665450 206 1573ft 136kts
28-Jul-14 11:29 35.210932 -120.643007 124 3087ft 149kts
28-Jul-14 11:30 35.184834 -120.595984 123 4706ft 181kts
28-Jul-14 11:31 35.155937 -120.544919 123 6538ft 184kts
28-Jul-14 11:32 35.139061 -120.484355 98 7501ft 216kts
28-Jul-14 11:33 35.127988 -120.407304 101 8169ft 218kts
28-Jul-14 11:34 35.106894 -120.354223 114 10970ft 148kts
28-Jul-14 11:35 35.085278 -120.302679 114 13077ft 194kts
28-Jul-14 11:36 35.057790 -120.235127 114 13514ft 243kts
28-Jul-14 11:37 35.026783 -120.158080 115 13518ft 258kts
28-Jul-14 11:38 34.993824 -120.082937 114 13522ft 274kts
28-Jul-14 11:39 34.959690 -119.999175 114 13521ft 284kts
28-Jul-14 11:40 34.925246 -119.913514 114 13515ft 289kts
28-Jul-14 11:41 34.869630 -119.867400 205 13461ft 277kts
28-Jul-14 11:42 34.805505 -119.893453 152 13525ft 279kts
28-Jul-14 11:43 34.736646 -119.848047 151 13501ft 284kts
28-Jul-14 11:44 34.667128 -119.802316 151 13499ft 284kts
28-Jul-14 11:45 34.597653 -119.756611 151 13499ft 284kts
28-Jul-14 11:46 34.561103 -119.674395 109 13500ft 286kts
28-Jul-14 11:47 34.534608 -119.583853 109 13499ft 287kts
28-Jul-14 11:48 34.507920 -119.492587 109 13499ft 287kts
28-Jul-14 11:49 34.472185 -119.406875 121 13494ft 287kts
28-Jul-14 11:50 34.427551 -119.327331 124 13493ft 288kts
28-Jul-14 11:51 34.382315 -119.246975 124 13490ft 289kts
28-Jul-14 11:52 34.337267 -119.166502 124 13490ft 289kts
28-Jul-14 11:53 34.292143 -119.085555 124 13492ft 302kts
28-Jul-14 11:54 34.247332 -119.005171 124 13491ft 306kts
28-Jul-14 11:55 34.202089 -118.923883 124 13493ft 306kts
28-Jul-14 11:56 34.157925 -118.843778 124 13505ft 305kts
28-Jul-14 11:57 34.116639 -118.754985 119 13516ft 304kts
28-Jul-14 11:58 34.078417 -118.664297 117 13515ft 303kts
28-Jul-14 11:59 34.045779 -118.586503 117 13511ft 303kts
28-Jul-14 12:00 34.018950 -118.523330 117 13510ft 303kts
28-Jul-14 12:01 33.999464 -118.477996 117 13337ft 301kts
28-Jul-14 12:02 33.971829 -118.414824 117 11765ft 302kts
28-Jul-14 12:03 33.947790 -118.360206 117 10681ft 298kts
28-Jul-14 12:04 33.922567 -118.302756 117 9736ft 294kts
28-Jul-14 12:05 33.897237 -118.245558 117 8873ft 289kts
28-Jul-14 12:06 33.874132 -118.194303 117 7858ft 283kts
28-Jul-14 12:07 33.851388 -118.144088 117 6757ft 278kts
28-Jul-14 12:08 33.827260 -118.090441 117 5655ft 269kts
28-Jul-14 12:09 33.805865 -118.041978 116 5198ft 255kts
28-Jul-14 12:10 33.782708 -117.989640 116 3733ft 254kts
28-Jul-14 12:11 33.761369 -117.941295 116 3028ft 218kts
28-Jul-14 12:12 33.741391 -117.895054 116 2116ft 181kts
28-Jul-14 12:13 33.720692 -117.857953 133 1286ft 135kts
28-Jul-14 12:14 33.697784 -117.854925 206 662ft 104kts
28-Jul-14 12:15 33.678317 -117.867162 207 61ft 80kts
28-Jul-14 12:16 33.672240 -117.871990 261 60ft 3kts
28-Jul-14 12:17 33.671766 -117.873792 216 60ft 0kts
28-Jul-14 12:18 33.671766 -117.873792 216 60ft 0kts
28-Jul-14 12:19 33.671766 -117.873792 216 60ft 0kts
28-Jul-14 12:20 33.671766 -117.873792 216 60ft 0kts

Navigation Log

Ident Type
Flight plan parsing failed, navigation log unavailable